createdAt,value
2023-03-02T00:01:06.266Z,102219.75
2023-03-02T00:03:51.770Z,102201.00
2023-03-02T00:06:37.371Z,102212.94
2023-03-02T00:09:22.814Z,102210.34
2023-03-02T00:12:09.034Z,102209.56
2023-03-02T00:14:54.298Z,102216.53
2023-03-02T00:17:39.266Z,102219.13
2023-03-02T00:20:24.200Z,102213.16
2023-03-02T00:23:09.408Z,102215.88
2023-03-02T00:25:54.386Z,102189.28
2023-03-02T00:28:39.573Z,102191.09
2023-03-02T00:31:24.723Z,102210.84
2023-03-02T00:34:09.633Z,102193.66
2023-03-02T00:36:54.917Z,102206.56
2023-03-02T00:39:39.768Z,102205.72
2023-03-02T00:42:24.725Z,102207.53
2023-03-02T00:45:10.009Z,102202.50
2023-03-02T00:47:55.386Z,102185.41
2023-03-02T00:50:41.282Z,102162.34
2023-03-02T00:53:26.422Z,102174.34
2023-03-02T00:56:11.979Z,102178.69
2023-03-02T00:58:57.145Z,102196.66
2023-03-02T01:01:42.129Z,102192.38
2023-03-02T01:04:30.919Z,102170.06
2023-03-02T01:07:17.891Z,102184.59
2023-03-02T01:10:03.606Z,102174.25
2023-03-02T01:12:48.627Z,102180.28
2023-03-02T01:15:35.108Z,102184.63
2023-03-02T01:18:20.184Z,102177.00
2023-03-02T01:21:07.387Z,102186.53
2023-03-02T01:23:52.600Z,102135.19
2023-03-02T01:26:37.875Z,102175.56
2023-03-02T01:29:22.853Z,102174.81
2023-03-02T01:32:08.348Z,102180.88
2023-03-02T01:34:53.327Z,102178.28
2023-03-02T01:37:38.661Z,102177.56
2023-03-02T01:40:23.837Z,102178.41
2023-03-02T01:43:14.452Z,102165.47
2023-03-02T01:46:27.510Z,102153.53
2023-03-02T01:49:14.663Z,102173.31
2023-03-02T01:52:00.241Z,102166.50
2023-03-02T01:54:49.858Z,102175.97
2023-03-02T01:57:43.516Z,102172.63
2023-03-02T02:00:31.876Z,102173.41
2023-03-02T02:03:28.788Z,102172.56
2023-03-02T02:06:32.594Z,102143.41
2023-03-02T02:09:20.386Z,102156.31
2023-03-02T02:12:05.933Z,102159.78
2023-03-02T02:14:51.311Z,102161.63
2023-03-02T02:17:36.457Z,102162.50
2023-03-02T02:20:41.063Z,102163.44
2023-03-02T02:23:34.054Z,102157.47
2023-03-02T02:26:35.409Z,102159.34
2023-03-02T02:29:38.291Z,102148.09
2023-03-02T02:32:27.181Z,102147.28
2023-03-02T02:35:18.155Z,102138.63
2023-03-02T02:38:07.718Z,102122.38
2023-03-02T02:40:56.602Z,102141.28
2023-03-02T02:43:42.018Z,102141.28
2023-03-02T02:46:27.778Z,102148.22
2023-03-02T02:49:35.741Z,102135.31
2023-03-02T02:52:23.607Z,102137.94
2023-03-02T02:55:15.915Z,102132.00
2023-03-02T02:58:09.916Z,102114.09
2023-03-02T03:00:55.536Z,102131.28
2023-03-02T03:03:47.340Z,102134.72
2023-03-02T03:06:38.303Z,102138.19
2023-03-02T03:09:24.066Z,102133.81
2023-03-02T03:12:21.125Z,102142.44
2023-03-02T03:15:07.793Z,102143.44
2023-03-02T03:17:58.238Z,102140.03
2023-03-02T03:20:45.269Z,102129.75
2023-03-02T03:23:31.075Z,102144.28
2023-03-02T03:26:16.961Z,102139.06
2023-03-02T03:29:02.804Z,102146.88
2023-03-02T03:31:47.994Z,102151.22
2023-03-02T03:34:40.924Z,102149.53
2023-03-02T03:37:26.146Z,102139.19
2023-03-02T03:40:11.815Z,102152.09
2023-03-02T03:42:56.705Z,102140.03
2023-03-02T03:45:41.741Z,102145.25
2023-03-02T03:48:26.934Z,102145.25
2023-03-02T03:51:12.318Z,102144.34
2023-03-02T03:54:00.103Z,102113.41
2023-03-02T03:56:48.262Z,102145.19
2023-03-02T03:59:34.142Z,102147.75
2023-03-02T04:02:19.950Z,102130.63
2023-03-02T04:05:06.461Z,102142.56
2023-03-02T04:07:51.877Z,102134.81
2023-03-02T04:10:37.085Z,102135.66
2023-03-02T04:13:22.297Z,102142.56
2023-03-02T04:16:07.522Z,102145.94
2023-03-02T04:18:52.816Z,102154.56
2023-03-02T04:21:43.260Z,102149.47
2023-03-02T04:24:28.655Z,102149.53
2023-03-02T04:27:14.525Z,102145.25
2023-03-02T04:29:59.662Z,102144.34
2023-03-02T04:32:44.554Z,102147.81
2023-03-02T04:35:29.986Z,102152.97
2023-03-02T04:38:15.150Z,102153.88
2023-03-02T04:41:00.508Z,102141.88
2023-03-02T04:43:45.833Z,102138.47
2023-03-02T04:46:31.748Z,102155.63
2023-03-02T04:49:18.595Z,102157.34
2023-03-02T04:52:04.829Z,102155.69
2023-03-02T04:54:49.710Z,102151.41
2023-03-02T04:57:34.969Z,102154.81
2023-03-02T05:00:23.937Z,102175.44
2023-03-02T05:03:09.149Z,102129.97
2023-03-02T05:05:54.564Z,102159.16
2023-03-02T05:08:40.013Z,102162.63
2023-03-02T05:11:26.262Z,102157.47
2023-03-02T05:14:12.777Z,102152.34
2023-03-02T05:16:58.196Z,102131.75
2023-03-02T05:19:43.557Z,102151.47
2023-03-02T05:22:28.629Z,102154.91
2023-03-02T05:25:14.526Z,102155.78
2023-03-02T05:27:59.987Z,102159.22
2023-03-02T05:30:45.444Z,102163.53
2023-03-02T05:33:30.939Z,102167.00
2023-03-02T05:36:19.011Z,102167.88
2023-03-02T05:39:06.405Z,102154.16
2023-03-02T05:41:51.827Z,102150.72
2023-03-02T05:44:36.666Z,102155.88
2023-03-02T05:47:21.739Z,102155.88
2023-03-02T05:50:07.178Z,102133.63
2023-03-02T05:52:52.578Z,102159.31
2023-03-02T05:55:37.975Z,102156.75
2023-03-02T05:58:23.210Z,102148.19
2023-03-02T06:01:13.138Z,102157.59
2023-03-02T06:03:59.903Z,102146.47
2023-03-02T06:06:45.071Z,102158.50
2023-03-02T06:09:29.975Z,102167.09
2023-03-02T06:12:15.141Z,102164.53
2023-03-02T06:15:05.584Z,102163.69
2023-03-02T06:17:50.912Z,102142.22
2023-03-02T06:20:36.254Z,102163.66
2023-03-02T06:23:21.449Z,102156.78
2023-03-02T06:26:11.853Z,102154.22
2023-03-02T06:28:56.771Z,102146.47
2023-03-02T06:31:41.687Z,102146.47
2023-03-02T06:34:29.432Z,102144.78
2023-03-02T06:37:14.500Z,102128.50
2023-03-02T06:39:59.740Z,102152.53
2023-03-02T06:42:45.197Z,102159.38
2023-03-02T06:45:33.635Z,102150.78
2023-03-02T06:48:18.899Z,102160.25
2023-03-02T06:51:04.538Z,102160.25
2023-03-02T06:53:49.534Z,102157.66
2023-03-02T06:56:35.448Z,102153.34
2023-03-02T06:59:20.738Z,102159.38
2023-03-02T07:02:06.403Z,102132.78
2023-03-02T07:04:51.526Z,102143.94
2023-03-02T07:07:37.026Z,102151.66
2023-03-02T07:10:22.370Z,102138.75
2023-03-02T07:13:09.103Z,102154.25
2023-03-02T07:15:54.994Z,102155.97
2023-03-02T07:18:40.446Z,102151.66
2023-03-02T07:21:25.716Z,102156.78
2023-03-02T07:24:11.009Z,102135.34
2023-03-02T07:26:55.958Z,102155.94
2023-03-02T07:29:40.929Z,102152.50
2023-03-02T07:32:26.280Z,102153.38
2023-03-02T07:35:11.409Z,102155.09
2023-03-02T07:37:56.649Z,102162.81
2023-03-02T07:40:42.855Z,102153.38
2023-03-02T07:43:29.325Z,102163.66
2023-03-02T07:46:14.436Z,102163.66
2023-03-02T07:48:59.779Z,102156.78
2023-03-02T07:51:45.034Z,102156.75
2023-03-02T07:54:30.516Z,102159.31
2023-03-02T07:57:16.442Z,102143.84
2023-03-02T08:00:02.203Z,102162.69
2023-03-02T08:02:47.550Z,102180.75
2023-03-02T08:05:32.639Z,102166.16
2023-03-02T08:08:17.425Z,102181.63
2023-03-02T08:11:10.999Z,102178.97
2023-03-02T08:14:00.352Z,102191.81
2023-03-02T08:16:45.572Z,102181.41
2023-03-02T08:19:30.916Z,102187.00
2023-03-02T08:22:16.180Z,102183.59
2023-03-02T08:25:01.352Z,102191.31
2023-03-02T08:27:46.767Z,102184.34
2023-03-02T08:30:32.058Z,102197.09
2023-03-02T08:33:17.205Z,102184.00
2023-03-02T08:36:12.395Z,102189.03
2023-03-02T08:38:57.461Z,102190.56
2023-03-02T08:41:42.667Z,102197.38
2023-03-02T08:44:27.877Z,102181.81
2023-03-02T08:47:13.173Z,102191.06
2023-03-02T08:49:58.413Z,102196.94
2023-03-02T08:52:44.124Z,102198.50
2023-03-02T08:55:29.269Z,102202.59
2023-03-02T08:58:14.839Z,102197.41
2023-03-02T09:01:00.190Z,102203.25
2023-03-02T09:03:45.894Z,102204.81
2023-03-02T09:06:34.232Z,102174.63
2023-03-02T09:09:19.426Z,102162.69
2023-03-02T09:12:04.451Z,102191.53
2023-03-02T09:14:49.734Z,102192.88
2023-03-02T09:17:34.649Z,102200.34
2023-03-02T09:20:19.596Z,102187.06
2023-03-02T09:23:04.659Z,102194.84
2023-03-02T09:25:50.530Z,102192.88
2023-03-02T09:28:36.173Z,102195.13
2023-03-02T09:31:21.427Z,102182.03
2023-03-02T09:34:07.235Z,102174.38
2023-03-02T09:36:52.421Z,102173.47
2023-03-02T09:39:38.577Z,102192.97
2023-03-02T09:42:51.785Z,102185.88
2023-03-02T09:45:59.186Z,102186.53
2023-03-02T09:49:00.716Z,102195.78
2023-03-02T09:51:54.756Z,102158.66
2023-03-02T09:54:41.000Z,102173.31
2023-03-02T09:57:34.502Z,102189.44
2023-03-02T10:00:29.496Z,102194.31
2023-03-02T10:03:22.892Z,102188.97
2023-03-02T10:06:09.122Z,102191.44
2023-03-02T10:08:55.160Z,102194.91
2023-03-02T10:12:00.599Z,102187.09
2023-03-02T10:14:56.733Z,102195.72
2023-03-02T10:18:07.714Z,102208.78
2023-03-02T10:21:12.790Z,102181.91
2023-03-02T10:24:28.993Z,102200.25
2023-03-02T10:27:21.948Z,102209.03
2023-03-02T10:30:39.940Z,102194.19
2023-03-02T10:33:27.301Z,102200.31
2023-03-02T10:36:25.326Z,102189.09
2023-03-02T10:39:15.771Z,102201.81
2023-03-02T10:42:04.581Z,102204.13
2023-03-02T10:44:56.934Z,102198.97
2023-03-02T10:47:48.574Z,102190.84
2023-03-02T10:50:33.833Z,102197.72
2023-03-02T10:53:19.353Z,102180.78
2023-03-02T10:56:05.564Z,102196.69
2023-03-02T10:58:50.672Z,102172.47
2023-03-02T11:01:36.119Z,102193.94
2023-03-02T11:04:21.875Z,102188.47
2023-03-02T11:07:14.978Z,102201.06
2023-03-02T11:10:18.615Z,102201.47
2023-03-02T11:13:23.825Z,102205.69
2023-03-02T11:16:18.152Z,102211.53
2023-03-02T11:19:11.922Z,102201.81
2023-03-02T11:22:15.979Z,102204.47
2023-03-02T11:25:06.529Z,102206.56
2023-03-02T11:28:01.986Z,102204.25
2023-03-02T11:30:50.599Z,102212.44
2023-03-02T11:33:42.936Z,102208.00
2023-03-02T11:36:39.890Z,102212.94
2023-03-02T11:39:41.126Z,102182.47
2023-03-02T11:42:38.956Z,102205.44
2023-03-02T11:45:28.164Z,102205.69
2023-03-02T11:48:29.651Z,102189.47
2023-03-02T11:51:21.804Z,102219.47
2023-03-02T11:54:22.942Z,102205.25
2023-03-02T11:57:21.534Z,102211.53
2023-03-02T12:00:34.165Z,102209.28
2023-03-02T12:03:22.698Z,102193.66
2023-03-02T12:06:29.806Z,102212.75
2023-03-02T12:09:23.835Z,102219.91
2023-03-02T12:12:32.888Z,102215.81
2023-03-02T12:15:43.651Z,102218.22
2023-03-02T12:18:44.575Z,102219.38
2023-03-02T12:21:40.767Z,102187.22
2023-03-02T12:24:28.028Z,102221.66
2023-03-02T12:27:12.975Z,102219.84
2023-03-02T12:30:16.898Z,102186.97
2023-03-02T12:33:04.166Z,102211.59
2023-03-02T12:35:52.815Z,102206.03
2023-03-02T12:38:40.611Z,102206.59
2023-03-02T12:41:57.689Z,102200.69
2023-03-02T12:44:49.317Z,102193.66
2023-03-02T12:47:35.920Z,102169.34
2023-03-02T12:50:25.024Z,102184.03
2023-03-02T12:53:18.437Z,102185.78
2023-03-02T12:56:03.467Z,102186.16
2023-03-02T12:58:50.020Z,102179.28
2023-03-02T13:01:34.966Z,102176.34
2023-03-02T13:04:22.736Z,102179.38
2023-03-02T13:07:17.146Z,102178.28
2023-03-02T13:10:09.685Z,102186.97
2023-03-02T13:12:55.073Z,102167.63
2023-03-02T13:15:58.768Z,102183.91
2023-03-02T13:18:44.612Z,102186.59
2023-03-02T13:21:32.975Z,102184.53
2023-03-02T13:24:33.588Z,102181.56
2023-03-02T13:27:21.278Z,102169.69
2023-03-02T13:30:22.302Z,102179.41
2023-03-02T13:33:23.033Z,102166.59
2023-03-02T13:36:08.415Z,102144.44
2023-03-02T13:38:56.648Z,102169.19
2023-03-02T13:41:53.261Z,102174.28
2023-03-02T13:44:38.128Z,102159.53
2023-03-02T13:47:24.594Z,102163.69
2023-03-02T13:50:10.300Z,102151.16
2023-03-02T13:52:57.741Z,102138.13
2023-03-02T13:55:43.131Z,102155.66
2023-03-02T13:58:29.781Z,102158.44
2023-03-02T14:01:14.943Z,102160.13
2023-03-02T14:04:01.554Z,102157.53
2023-03-02T14:06:47.200Z,102160.84
2023-03-02T14:09:32.459Z,102156.44
2023-03-02T14:12:28.152Z,102159.81
2023-03-02T14:15:16.414Z,102163.13
2023-03-02T14:18:01.653Z,102160.97
2023-03-02T14:20:46.871Z,102140.81
2023-03-02T14:23:32.330Z,102149.72
2023-03-02T14:26:40.859Z,102142.44
2023-03-02T14:29:28.193Z,102121.38
2023-03-02T14:32:15.549Z,102140.50
2023-03-02T14:35:00.866Z,102127.38
2023-03-02T14:37:49.374Z,102145.50
2023-03-02T14:40:34.675Z,102139.38
2023-03-02T14:43:21.290Z,102111.66
2023-03-02T14:46:06.971Z,102124.63
2023-03-02T14:48:52.123Z,102142.72
2023-03-02T14:51:40.979Z,102131.94
2023-03-02T14:54:26.865Z,102137.94
2023-03-02T14:57:25.132Z,102143.50
2023-03-02T15:00:15.395Z,102137.81
2023-03-02T15:03:00.421Z,102135.81
2023-03-02T15:05:59.006Z,102134.47
2023-03-02T15:08:45.963Z,102141.50
2023-03-02T15:11:31.389Z,102132.97
2023-03-02T15:14:16.508Z,102143.06
2023-03-02T15:17:02.053Z,102138.81
2023-03-02T15:19:47.438Z,102122.78
2023-03-02T15:22:33.667Z,102134.16
2023-03-02T15:25:18.745Z,102127.72
2023-03-02T15:28:03.993Z,102112.28
2023-03-02T15:30:49.160Z,102091.75
2023-03-02T15:33:34.246Z,102123.41
2023-03-02T15:36:19.270Z,102119.78
2023-03-02T15:39:05.003Z,102119.50
2023-03-02T15:41:50.291Z,102131.75
2023-03-02T15:44:35.511Z,102126.09
2023-03-02T15:47:20.474Z,102097.59
2023-03-02T15:50:05.902Z,102118.31
2023-03-02T15:52:51.237Z,102139.78
2023-03-02T15:55:40.426Z,102138.19
2023-03-02T15:58:25.528Z,102124.22
2023-03-02T16:01:11.523Z,102141.22
2023-03-02T16:03:59.314Z,102134.38
2023-03-02T16:06:44.694Z,102141.47
2023-03-02T16:09:31.431Z,102141.44
2023-03-02T16:12:17.851Z,102120.50
2023-03-02T16:15:02.814Z,102122.50
2023-03-02T16:17:48.360Z,102135.66
2023-03-02T16:20:38.516Z,102130.56
2023-03-02T16:23:23.794Z,102125.47
2023-03-02T16:26:11.885Z,102128.16
2023-03-02T16:28:57.216Z,102142.31
2023-03-02T16:31:45.237Z,102114.16
2023-03-02T16:34:30.738Z,102131.25
2023-03-02T16:37:15.990Z,102140.03
2023-03-02T16:40:00.896Z,102130.53
2023-03-02T16:42:46.315Z,102136.03
2023-03-02T16:45:31.183Z,102138.94
2023-03-02T16:48:17.394Z,102144.13
2023-03-02T16:51:03.317Z,102145.97
2023-03-02T16:53:48.897Z,102130.06
2023-03-02T16:56:34.644Z,102151.75
2023-03-02T16:59:19.506Z,102129.63
2023-03-02T17:02:04.656Z,102157.13
2023-03-02T17:04:49.875Z,102157.88
2023-03-02T17:07:35.266Z,102154.53
2023-03-02T17:10:22.033Z,102158.00
2023-03-02T17:13:08.702Z,102153.00
2023-03-02T17:15:54.646Z,102158.50
2023-03-02T17:18:41.045Z,102160.34
2023-03-02T17:21:25.917Z,102169.97
2023-03-02T17:24:10.880Z,102146.03
2023-03-02T17:26:56.429Z,102175.41
2023-03-02T17:29:41.833Z,102178.41
2023-03-02T17:32:27.260Z,102165.78
2023-03-02T17:35:13.978Z,102167.56
2023-03-02T17:37:59.593Z,102171.94
2023-03-02T17:40:44.697Z,102172.94
2023-03-02T17:43:37.760Z,102162.91
2023-03-02T17:46:25.522Z,102183.53
2023-03-02T17:49:11.429Z,102181.94
2023-03-02T17:51:57.186Z,102189.72
2023-03-02T17:54:42.988Z,102197.53
2023-03-02T17:57:28.214Z,102206.28
2023-03-02T18:00:16.766Z,102213.47
2023-03-02T18:03:01.832Z,102211.03
2023-03-02T18:05:47.075Z,102217.09
2023-03-02T18:08:33.206Z,102232.88
2023-03-02T18:11:22.318Z,102226.97
2023-03-02T18:14:07.848Z,102216.84
2023-03-02T18:16:52.720Z,102249.63
2023-03-02T18:19:38.301Z,102245.28
2023-03-02T18:22:23.454Z,102223.16
2023-03-02T18:25:09.080Z,102253.22
2023-03-02T18:27:54.349Z,102256.00
2023-03-02T18:30:39.608Z,102256.03
2023-03-02T18:33:25.006Z,102256.13
2023-03-02T18:36:10.506Z,102264.97
2023-03-02T18:38:56.032Z,102258.97
2023-03-02T18:41:41.270Z,102261.63
2023-03-02T18:44:28.140Z,102265.16
2023-03-02T18:47:18.002Z,102232.81
2023-03-02T18:50:03.700Z,102264.56
2023-03-02T18:52:50.325Z,102270.69
2023-03-02T18:55:37.156Z,102267.44
2023-03-02T18:58:24.634Z,102282.13
2023-03-02T19:01:09.991Z,102259.88
2023-03-02T19:03:57.574Z,102261.84
2023-03-02T19:06:43.333Z,102280.66
2023-03-02T19:09:28.877Z,102279.03
2023-03-02T19:12:14.629Z,102270.69
2023-03-02T19:14:59.579Z,102286.13
2023-03-02T19:17:45.907Z,102278.34
2023-03-02T19:20:31.132Z,102284.44
2023-03-02T19:23:16.963Z,102300.03
2023-03-02T19:26:02.590Z,102295.63
2023-03-02T19:28:47.528Z,102286.22
2023-03-02T19:31:33.218Z,102299.06
2023-03-02T19:34:18.213Z,102299.88
2023-03-02T19:37:05.298Z,102302.56
2023-03-02T19:39:50.410Z,102308.66
2023-03-02T19:42:39.316Z,102303.47
2023-03-02T19:45:29.078Z,102302.63
2023-03-02T19:48:14.422Z,102302.72
2023-03-02T19:50:59.482Z,102301.09
2023-03-02T19:53:47.054Z,102282.31
2023-03-02T19:56:35.015Z,102302.13
2023-03-02T19:59:22.104Z,102313.34
2023-03-02T20:02:07.217Z,102310.75
2023-03-02T20:04:53.421Z,102303.09
2023-03-02T20:07:41.489Z,102308.16
2023-03-02T20:10:31.395Z,102315.88
2023-03-02T20:13:16.863Z,102321.00
2023-03-02T20:16:02.251Z,102323.66
2023-03-02T20:18:47.414Z,102315.94
2023-03-02T20:21:33.615Z,102298.78
2023-03-02T20:24:18.714Z,102303.88
2023-03-02T20:27:06.836Z,102308.09
2023-03-02T20:29:52.171Z,102315.81
2023-03-02T20:32:37.433Z,102330.47
2023-03-02T20:35:24.323Z,102326.13
2023-03-02T20:38:15.556Z,102335.63
2023-03-02T20:41:01.280Z,102329.56
2023-03-02T20:43:46.660Z,102327.75
2023-03-02T20:46:40.211Z,102339.75
2023-03-02T20:49:27.416Z,102343.25
2023-03-02T20:52:12.440Z,102351.03
2023-03-02T20:54:57.546Z,102349.22
2023-03-02T20:57:42.982Z,102343.31
2023-03-02T21:00:30.013Z,102328.00
2023-03-02T21:03:15.476Z,102315.88
2023-03-02T21:06:00.947Z,102354.44
2023-03-02T21:08:47.290Z,102361.38
2023-03-02T21:11:33.683Z,102368.25
2023-03-02T21:14:19.089Z,102375.97
2023-03-02T21:17:05.215Z,102356.31
2023-03-02T21:19:50.296Z,102384.69
2023-03-02T21:22:35.580Z,102381.28
2023-03-02T21:25:20.663Z,102379.63
2023-03-02T21:28:06.024Z,102377.88
2023-03-02T21:30:51.340Z,102363.31
2023-03-02T21:33:36.642Z,102372.63
2023-03-02T21:36:24.087Z,102377.81
2023-03-02T21:39:10.491Z,102355.56
2023-03-02T21:41:55.939Z,102370.84
2023-03-02T21:44:40.955Z,102376.97
2023-03-02T21:47:26.863Z,102369.94
2023-03-02T21:50:14.989Z,102374.28
2023-03-02T21:53:00.250Z,102372.41
2023-03-02T21:55:45.955Z,102370.72
2023-03-02T21:58:31.171Z,102375.00
2023-03-02T22:01:16.824Z,102371.69
2023-03-02T22:04:02.268Z,102381.16
2023-03-02T22:06:47.512Z,102353.78
2023-03-02T22:09:32.860Z,102376.88
2023-03-02T22:12:20.375Z,102376.06
2023-03-02T22:15:14.147Z,102381.16
2023-03-02T22:17:59.729Z,102375.91
2023-03-02T22:20:48.094Z,102375.09
2023-03-02T22:23:33.045Z,102370.78
2023-03-02T22:26:18.002Z,102371.69
2023-03-02T22:29:13.625Z,102368.25
2023-03-02T22:32:13.186Z,102369.09
2023-03-02T22:35:01.758Z,102374.22
2023-03-02T22:37:46.733Z,102361.28
2023-03-02T22:40:34.561Z,102369.81
2023-03-02T22:43:29.427Z,102347.53
2023-03-02T22:46:17.578Z,102365.56
2023-03-02T22:49:17.152Z,102357.72
2023-03-02T22:52:11.624Z,102368.13
2023-03-02T22:54:56.976Z,102366.44
2023-03-02T22:57:42.886Z,102357.81
2023-03-02T23:00:39.511Z,102359.69
2023-03-02T23:03:39.015Z,102362.13
2023-03-02T23:06:27.597Z,102337.31
2023-03-02T23:09:16.967Z,102342.50
2023-03-02T23:12:13.619Z,102335.63
2023-03-02T23:14:58.712Z,102358.00
2023-03-02T23:17:46.339Z,102316.78
2023-03-02T23:20:33.784Z,102361.31
2023-03-02T23:23:19.890Z,102355.41
2023-03-02T23:26:05.199Z,102366.56
2023-03-02T23:28:50.701Z,102346.00
2023-03-02T23:31:36.000Z,102358.91
2023-03-02T23:34:21.432Z,102368.34
2023-03-02T23:37:06.543Z,102361.44
2023-03-02T23:39:52.428Z,102362.22
2023-03-02T23:42:37.904Z,102364.81
2023-03-02T23:45:23.134Z,102368.25
2023-03-02T23:48:07.963Z,102362.16
2023-03-02T23:50:53.326Z,102359.63
2023-03-02T23:53:38.122Z,102355.25
2023-03-02T23:56:23.302Z,102358.72
2023-03-02T23:59:08.720Z,102356.13
